Time;durP1;ratioP1;P1;durP2;ratioP2;P2;SDS_P1;SDS_P2;PMS_P1;PMS_P2;Temp;Humidity;BMP_temperature;BMP_pressure;BME280_temperature;BME280_humidity;BME280_pressure;Samples;Min_cycle;Max_cycle;Signal;HPM_P1;HPM_P2
2021/12/14 00:00:20;;;;;;;11.00;5.93;;;9.80;99.90;;;;;;5076636;28;20403;-78
2021/12/14 00:02:48;;;;;;;8.02;4.57;;;9.80;99.90;;;;;;5076244;28;20012;-76
2021/12/14 00:05:16;;;;;;;10.13;5.65;;;9.80;99.90;;;;;;5094619;28;20042;-76
2021/12/14 00:07:42;;;;;;;10.43;6.10;;;9.90;99.90;;;;;;5075967;28;20478;-76
2021/12/14 00:10:26;;;;;;;10.63;5.50;;;9.80;99.90;;;;;;5094014;28;20020;-77
2021/12/14 00:13:01;;;;;;;10.05;5.65;;;9.90;99.90;;;;;;5076173;28;20038;-78
2021/12/14 00:15:28;;;;;;;8.18;5.43;;;9.90;99.90;;;;;;5094769;28;20024;-77
2021/12/14 00:17:59;;;;;;;8.13;5.22;;;9.80;99.90;;;;;;5094130;28;20024;-77
2021/12/14 00:20:37;;;;;;;10.05;6.15;;;9.90;99.90;;;;;;5094552;28;20023;-77
2021/12/14 00:25:40;;;;;;;11.30;6.93;;;9.90;99.90;;;;;;5094279;28;20044;-77
2021/12/14 00:28:18;;;;;;;11.52;6.15;;;9.90;99.90;;;;;;5094148;28;20042;-77
2021/12/14 00:30:46;;;;;;;9.70;5.50;;;9.90;99.90;;;;;;5075710;28;20024;-77
2021/12/14 00:33:15;;;;;;;10.90;6.20;;;9.90;99.90;;;;;;5094389;28;20055;-77
2021/12/14 00:35:41;;;;;;;12.15;5.30;;;9.80;99.90;;;;;;5093695;28;20023;-77
2021/12/14 00:38:09;;;;;;;10.65;6.57;;;9.80;99.90;;;;;;5093988;28;20068;-77
2021/12/14 00:40:43;;;;;;;12.93;6.03;;;9.90;99.90;;;;;;5094048;28;20453;-77
2021/12/14 00:43:09;;;;;;;9.82;5.80;;;9.90;99.90;;;;;;5075914;28;20028;-77
2021/12/14 00:45:39;;;;;;;10.15;6.05;;;9.80;99.90;;;;;;5093867;28;20124;-77
2021/12/14 00:48:06;;;;;;;10.77;6.20;;;9.80;99.90;;;;;;5075795;28;20020;-76
2021/12/14 00:50:33;;;;;;;10.27;5.93;;;9.80;99.90;;;;;;5093751;28;20050;-77
2021/12/14 00:53:00;;;;;;;10.13;5.25;;;9.80;99.90;;;;;;5093721;28;20099;-77
2021/12/14 00:55:31;;;;;;;11.02;6.45;;;9.90;99.90;;;;;;5075581;28;20539;-77
2021/12/14 00:57:57;;;;;;;;;;;9.80;99.90;;;;;;5075613;28;20150;-76
2021/12/14 01:00:26;;;;;;;11.55;6.22;;;9.80;99.90;;;;;;5093596;28;19931;-77
2021/12/14 01:02:52;;;;;;;11.52;6.57;;;9.80;99.90;;;;;;5093135;28;20016;-77
2021/12/14 01:05:24;;;;;;;13.65;6.57;;;9.80;99.90;;;;;;5075201;28;20032;-76
2021/12/14 01:07:49;;;;;;;;;;;9.80;99.90;;;;;;5074952;28;20119;-77
2021/12/14 01:10:39;;;;;;;11.82;6.68;;;9.80;99.90;;;;;;5093439;28;19983;-77
2021/12/14 01:13:08;;;;;;;11.20;6.18;;;9.70;99.90;;;;;;5093491;28;20020;-77
2021/12/14 01:21:29;;;;;;;15.20;7.13;;;9.80;99.90;;;;;;5092008;28;20035;-77
2021/12/14 01:24:04;;;;;;;11.27;6.57;;;9.80;99.90;;;;;;5093097;28;20341;-77
2021/12/14 01:26:32;;;;;;;10.25;6.60;;;9.90;99.90;;;;;;5093120;28;20086;-77
2021/12/14 01:29:00;;;;;;;11.20;6.32;;;9.80;99.90;;;;;;5092718;28;20027;-76
2021/12/14 01:31:37;;;;;;;11.23;6.53;;;9.80;99.90;;;;;;5093001;28;20452;-77
2021/12/14 01:34:07;;;;;;;12.98;7.75;;;9.80;99.90;;;;;;5074486;28;20020;-76
2021/12/14 01:42:22;;;;;;;12.02;6.85;;;9.80;99.90;;;;;;5060881;28;20036;-76
2021/12/14 01:44:59;;;;;;;12.88;7.07;;;9.80;99.90;;;;;;5074281;28;20036;-78
2021/12/14 01:47:32;;;;;;;12.10;7.43;;;9.80;99.90;;;;;;5092603;28;20041;-79
2021/12/14 01:49:57;;;;;;;11.80;6.57;;;9.80;99.90;;;;;;5092742;28;20042;-79
2021/12/14 01:52:30;;;;;;;15.43;8.15;;;9.80;99.90;;;;;;5092822;28;20467;-79
2021/12/14 01:55:04;;;;;;;16.05;8.85;;;9.80;99.90;;;;;;5074220;28;20028;-79
2021/12/14 01:57:31;;;;;;;16.85;9.05;;;9.70;99.90;;;;;;5092710;28;20103;-78
2021/12/14 01:59:58;;;;;;;18.70;8.20;;;9.70;99.90;;;;;;5074053;28;20035;-79
2021/12/14 02:02:33;;;;;;;16.02;7.95;;;9.70;99.90;;;;;;5074428;28;20078;-79
2021/12/14 02:05:03;;;;;;;12.60;7.30;;;9.70;99.90;;;;;;5074000;28;20027;-78
2021/12/14 02:07:30;;;;;;;15.30;7.77;;;9.70;99.90;;;;;;5074456;28;20059;-79
2021/12/14 02:10:02;;;;;;;14.13;8.15;;;9.70;99.90;;;;;;5092027;28;20266;-78
2021/12/14 02:12:31;;;;;;;12.27;7.60;;;9.70;99.90;;;;;;5092660;28;20035;-78
2021/12/14 02:15:32;;;;;;;13.02;7.32;;;9.70;99.90;;;;;;5073928;28;20020;-78
2021/12/14 02:18:00;;;;;;;13.70;7.45;;;9.70;99.90;;;;;;5073961;28;20073;-79
2021/12/14 02:20:32;;;;;;;14.38;7.60;;;9.70;99.90;;;;;;5092435;28;20444;-78
2021/12/14 02:22:58;;;;;;;14.75;8.15;;;9.70;99.90;;;;;;5073803;28;20016;-78
2021/12/14 02:25:24;;;;;;;12.20;7.07;;;9.70;99.90;;;;;;5073835;28;20089;-79
2021/12/14 02:27:53;;;;;;;12.63;7.15;;;9.70;99.90;;;;;;5091895;28;20107;-77
2021/12/14 02:30:26;;;;;;;12.52;6.43;;;9.70;99.90;;;;;;5092452;28;20027;-77
2021/12/14 02:32:52;;;;;;;14.95;7.45;;;9.70;99.90;;;;;;5092750;28;20031;-77
2021/12/14 02:35:23;;;;;;;12.05;7.78;;;9.70;99.90;;;;;;5096563;28;20027;-77
2021/12/14 02:37:53;;;;;;;14.15;8.48;;;9.70;99.90;;;;;;5096063;28;20024;-78
2021/12/14 02:43:34;;;;;;;15.93;7.95;;;9.70;99.90;;;;;;5096511;28;20047;-78
2021/12/14 02:46:06;;;;;;;14.05;7.75;;;9.70;99.90;;;;;;5077665;28;20387;-78
2021/12/14 02:48:32;;;;;;;17.10;8.55;;;9.70;99.90;;;;;;5096301;28;20452;-79
2021/12/14 02:51:10;;;;;;;17.17;8.82;;;9.70;99.90;;;;;;5077669;28;20119;-78
2021/12/14 02:53:37;;;;;;;17.15;8.48;;;9.60;99.90;;;;;;5078201;28;20379;-77
2021/12/14 02:56:10;;;;;;;14.55;7.00;;;9.60;99.90;;;;;;5095667;28;20024;-77
2021/12/14 02:58:36;;;;;;;12.52;7.05;;;9.60;99.90;;;;;;5095908;28;20085;-78
2021/12/14 03:01:03;;;;;;;11.43;6.20;;;9.60;99.90;;;;;;5095658;28;20452;-78
2021/12/14 03:03:29;;;;;;;14.02;7.22;;;9.60;99.90;;;;;;5096036;28;20056;-78
2021/12/14 03:05:58;;;;;;;15.40;8.27;;;9.60;99.90;;;;;;5094751;28;20141;-76
2021/12/14 03:08:27;;;;;;;15.73;8.00;;;9.60;99.90;;;;;;5095925;28;20020;-76
2021/12/14 03:11:10;;;;;;;14.45;7.38;;;9.60;99.90;;;;;;5095332;28;20031;-77
2021/12/14 03:13:38;;;;;;;13.98;7.32;;;9.60;99.90;;;;;;5077193;28;20027;-78
2021/12/14 03:16:09;;;;;;;12.93;7.28;;;9.60;99.90;;;;;;5076976;28;20043;-76
2021/12/14 03:18:39;;;;;;;15.70;8.05;;;9.60;99.90;;;;;;5077583;28;20024;-76
2021/12/14 03:21:11;;;;;;;13.27;7.37;;;9.60;99.90;;;;;;5095669;28;20024;-77
2021/12/14 03:23:46;;;;;;;15.02;7.80;;;9.60;99.90;;;;;;5077492;28;20024;-78
2021/12/14 03:26:15;;;;;;;14.82;7.82;;;9.60;99.90;;;;;;5076741;28;20028;-78
2021/12/14 03:28:45;;;;;;;14.55;7.75;;;9.60;99.90;;;;;;5077308;28;20448;-77
2021/12/14 03:31:11;;;;;;;13.77;8.10;;;9.60;99.90;;;;;;5095186;28;20107;-78
2021/12/14 03:33:44;;;;;;;13.50;7.15;;;9.60;99.90;;;;;;5095539;28;20027;-78
2021/12/14 03:36:15;;;;;;;15.93;7.95;;;9.60;99.90;;;;;;5076754;28;20084;-78
2021/12/14 03:39:09;;;;;;;15.90;8.57;;;9.60;99.90;;;;;;5095449;28;20055;-77
2021/12/14 03:41:48;;;;;;;14.23;7.78;;;9.60;99.90;;;;;;5084131;28;20452;-78
2021/12/14 03:44:31;;;;;;;16.10;7.63;;;9.60;99.90;;;;;;5093759;28;20020;-77
2021/12/14 03:47:08;;;;;;;14.10;7.90;;;9.60;99.90;;;;;;5076618;28;20045;-77
2021/12/14 03:49:43;;;;;;;12.35;7.50;;;9.60;99.90;;;;;;5095303;28;20051;-77
2021/12/14 03:52:13;;;;;;;12.60;7.00;;;9.60;99.90;;;;;;5076610;28;20031;-77
2021/12/14 03:54:39;;;;;;;15.05;7.97;;;9.70;99.90;;;;;;5076945;28;20024;-78
2021/12/14 03:57:05;;;;;;;14.50;7.57;;;9.70;99.90;;;;;;5094542;28;20468;-77
2021/12/14 03:59:32;;;;;;;13.82;7.57;;;9.70;99.90;;;;;;5095317;28;20103;-76
2021/12/14 04:02:01;;;;;;;14.52;6.82;;;9.60;99.90;;;;;;5094365;28;20031;-77
2021/12/14 04:04:42;;;;;;;13.95;7.75;;;9.70;99.90;;;;;;5094912;28;20013;-77
2021/12/14 04:07:11;;;;;;;16.35;7.90;;;9.70;99.90;;;;;;5076317;28;20048;-78
2021/12/14 04:09:38;;;;;;;16.13;8.13;;;9.60;99.90;;;;;;5094773;28;20101;-77
2021/12/14 04:12:07;;;;;;;17.20;8.93;;;9.60;99.90;;;;;;5094330;28;20471;-77
2021/12/14 04:14:37;;;;;;;17.42;8.90;;;9.60;99.90;;;;;;5094842;28;20081;-77
2021/12/14 04:17:03;;;;;;;16.75;8.05;;;9.60;99.90;;;;;;5076187;28;20093;-77
2021/12/14 04:19:31;;;;;;;14.90;7.85;;;9.60;99.90;;;;;;5094647;28;20060;-77
2021/12/14 04:22:01;;;;;;;12.88;7.05;;;9.60;99.90;;;;;;5075978;28;20031;-77
2021/12/14 04:24:31;;;;;;;15.20;8.13;;;9.60;99.90;;;;;;5076332;28;20024;-78
2021/12/14 04:27:01;;;;;;;11.82;6.65;;;9.60;99.90;;;;;;5075896;28;20371;-77
2021/12/14 04:29:27;;;;;;;14.65;7.00;;;9.60;99.90;;;;;;5094159;28;20027;-77
2021/12/14 04:31:53;;;;;;;12.45;5.90;;;9.60;99.90;;;;;;5076035;28;20039;-77
2021/12/14 04:34:20;;;;;;;15.07;7.72;;;9.60;99.90;;;;;;5094229;28;20095;-77
2021/12/14 04:36:50;;;;;;;17.10;8.48;;;9.60;99.90;;;;;;5076047;28;20024;-77
2021/12/14 04:53:24;;;;;;;14.55;7.90;;;9.50;99.90;;;;;;5093590;28;20093;-78
2021/12/14 04:55:53;;;;;;;15.10;7.90;;;9.50;99.90;;;;;;5093495;28;20501;-78
2021/12/14 04:58:30;;;;;;;14.35;7.97;;;9.50;99.90;;;;;;5093056;28;20028;-79
2021/12/14 05:00:58;;;;;;;17.85;8.68;;;9.50;99.90;;;;;;5093415;28;20027;-78
2021/12/14 05:03:32;;;;;;;13.43;8.05;;;9.50;99.90;;;;;;5093424;28;20111;-78
2021/12/14 05:06:15;;;;;;;13.07;6.40;;;9.50;99.90;;;;;;5092837;28;20109;-78
2021/12/14 05:11:17;;;;;;;14.45;7.38;;;9.50;99.90;;;;;;5093316;28;20115;-78
2021/12/14 05:13:46;;;;;;;14.73;7.22;;;9.50;99.90;;;;;;5093623;28;20089;-76
2021/12/14 05:16:21;;;;;;;12.65;6.45;;;9.50;99.90;;;;;;5093458;28;20476;-78
2021/12/14 05:18:49;;;;;;;12.90;7.00;;;9.60;99.90;;;;;;5093467;28;20103;-79
2021/12/14 05:21:27;;;;;;;13.30;7.03;;;9.50;99.90;;;;;;5092691;28;20475;-77
2021/12/14 05:23:54;;;;;;;13.82;7.15;;;9.50;99.90;;;;;;5093401;28;20028;-77
2021/12/14 05:26:21;;;;;;;14.68;6.40;;;9.50;99.90;;;;;;5092760;28;20024;-78
2021/12/14 05:28:47;;;;;;;13.40;7.25;;;9.50;99.90;;;;;;5093249;28;20077;-76
2021/12/14 05:31:14;;;;;;;13.43;7.20;;;9.60;99.90;;;;;;5092687;28;20023;-78
2021/12/14 05:33:40;;;;;;;12.45;6.60;;;9.50;99.90;;;;;;5079301;28;20039;-78
2021/12/14 05:36:14;;;;;;;17.02;7.38;;;9.40;99.90;;;;;;5072282;28;20031;-79
2021/12/14 05:38:55;;;;;;;15.32;6.70;;;9.40;99.90;;;;;;5072884;28;20073;-79
2021/12/14 05:44:17;;;;;;;14.40;6.57;;;9.40;99.90;;;;;;5071775;28;20039;-79
2021/12/14 05:46:50;;;;;;;13.27;6.32;;;9.40;99.90;;;;;;5072677;28;20282;-78
2021/12/14 05:49:24;;;;;;;10.63;5.35;;;9.30;99.90;;;;;;5087703;28;20035;-79
2021/12/14 05:51:52;;;;;;;11.90;5.63;;;9.30;99.90;;;;;;5072836;28;20095;-78
2021/12/14 05:54:23;;;;;;;13.10;6.15;;;9.40;99.90;;;;;;5072154;28;20532;-79
2021/12/14 05:56:51;;;;;;;13.07;6.47;;;9.40;99.90;;;;;;5072607;28;20387;-79
2021/12/14 05:59:22;;;;;;;14.10;6.10;;;9.30;99.90;;;;;;5092199;28;20024;-79
2021/12/14 06:01:48;;;;;;;;;;;9.30;99.90;;;;;;5093226;28;20062;-78
2021/12/14 06:04:14;;;;;;;14.40;5.50;;;9.30;99.90;;;;;;5091490;28;19904;-78
2021/12/14 06:06:43;;;;;;;12.05;5.30;;;9.30;99.90;;;;;;5074406;28;20102;-78
2021/12/14 06:09:13;;;;;;;11.65;5.85;;;9.30;99.90;;;;;;5091070;28;20039;-77
2021/12/14 06:11:40;;;;;;;15.13;6.68;;;9.40;99.90;;;;;;5092863;28;20027;-77
2021/12/14 06:14:17;;;;;;;11.02;5.72;;;9.30;99.90;;;;;;5091857;28;20103;-75
2021/12/14 06:16:44;;;;;;;12.65;6.25;;;9.30;99.90;;;;;;5092450;28;20111;-75
2021/12/14 06:19:23;;;;;;;10.20;5.80;;;9.30;99.90;;;;;;5091728;28;20055;-75
2021/12/14 06:22:01;;;;;;;11.63;5.65;;;9.30;99.90;;;;;;5092157;28;20020;-75
2021/12/14 06:24:30;;;;;;;14.90;6.68;;;9.40;99.90;;;;;;5086662;28;20027;-75
2021/12/14 06:26:59;;;;;;;14.18;6.88;;;9.40;99.90;;;;;;5092379;28;20024;-75
2021/12/14 06:29:33;;;;;;;12.98;6.50;;;9.30;99.90;;;;;;5073709;28;20017;-75
2021/12/14 06:32:10;;;;;;;16.67;6.40;;;9.30;99.90;;;;;;5069787;28;20028;-75
2021/12/14 06:34:44;;;;;;;12.95;5.70;;;9.30;99.90;;;;;;5092035;28;20032;-75
2021/12/14 06:40:11;;;;;;;14.23;6.55;;;9.30;99.90;;;;;;5091494;28;20074;-75
2021/12/14 06:42:49;;;;;;;13.05;6.07;;;9.40;99.90;;;;;;5092277;28;20028;-75
2021/12/14 06:45:17;;;;;;;11.52;5.38;;;9.30;99.90;;;;;;5091927;28;20455;-75
2021/12/14 06:47:44;;;;;;;13.35;6.07;;;9.40;99.90;;;;;;5092165;28;20081;-75
2021/12/14 06:50:17;;;;;;;13.05;6.47;;;9.40;99.90;;;;;;5091563;28;20495;-74
2021/12/14 06:52:43;;;;;;;12.65;5.05;;;9.40;99.90;;;;;;5091911;28;20016;-75
2021/12/14 06:55:22;;;;;;;13.38;7.70;;;9.40;99.90;;;;;;5091600;28;20059;-75
2021/12/14 06:57:48;;;;;;;14.63;6.90;;;9.40;99.90;;;;;;5073829;28;20452;-75
2021/12/14 07:00:15;;;;;;;14.73;7.32;;;9.40;99.90;;;;;;5091550;28;20461;-75
2021/12/14 07:02:48;;;;;;;15.82;6.93;;;9.30;99.90;;;;;;5073762;28;20012;-75
2021/12/14 07:05:22;;;;;;;12.65;6.68;;;9.40;99.90;;;;;;5091325;28;20032;-75
2021/12/14 07:07:48;;;;;;;14.27;6.50;;;9.30;99.90;;;;;;5091724;28;20040;-75
2021/12/14 07:10:15;;;;;;;14.20;6.85;;;9.40;99.90;;;;;;5091047;28;20381;-75
2021/12/14 07:12:42;;;;;;;16.05;7.10;;;9.30;99.90;;;;;;5091755;28;20357;-75
2021/12/14 07:15:22;;;;;;;15.90;7.60;;;9.40;99.90;;;;;;5091365;28;20024;-73
2021/12/14 07:18:00;;;;;;;16.45;7.47;;;9.40;99.90;;;;;;5091763;28;20024;-74
2021/12/14 07:20:49;;;;;;;15.82;6.97;;;9.40;99.90;;;;;;5076634;28;20031;-74
2021/12/14 07:23:32;;;;;;;14.32;6.63;;;9.40;99.90;;;;;;5095145;28;20460;-75
2021/12/14 07:25:59;;;;;;;15.18;7.40;;;9.40;99.90;;;;;;5077253;28;20059;-75
2021/12/14 07:28:30;;;;;;;14.10;7.20;;;9.40;99.90;;;;;;5094732;28;20246;-75
2021/12/14 07:31:00;;;;;;;16.67;7.90;;;9.40;99.90;;;;;;5077198;28;20118;-75
2021/12/14 07:33:29;;;;;;;17.38;7.20;;;9.40;99.90;;;;;;5094900;28;20063;-75
2021/12/14 07:36:07;;;;;;;15.30;6.95;;;9.40;99.90;;;;;;5076785;28;20024;-75
2021/12/14 07:38:37;;;;;;;21.13;8.38;;;9.40;99.90;;;;;;5095246;28;20028;-75
2021/12/14 07:41:18;;;;;;;14.85;7.57;;;9.40;99.90;;;;;;5076933;28;20372;-74
2021/12/14 07:44:24;;;;;;;16.13;8.50;;;9.40;99.90;;;;;;5095325;28;20024;-75
2021/12/14 07:47:07;;;;;;;16.52;7.93;;;9.30;99.90;;;;;;5094149;28;20056;-75
2021/12/14 07:49:33;;;;;;;18.50;8.32;;;9.30;99.90;;;;;;5076808;28;20485;-75
2021/12/14 07:52:04;;;;;;;16.70;7.78;;;9.30;99.90;;;;;;5094968;28;20063;-75
2021/12/14 07:54:35;;;;;;;17.77;8.90;;;9.40;99.90;;;;;;5094465;28;20468;-74
2021/12/14 07:57:23;;;;;;;16.17;7.18;;;9.40;99.90;;;;;;5076817;28;20032;-75
2021/12/14 07:59:53;;;;;;;16.90;8.30;;;9.40;99.90;;;;;;5095081;28;20028;-74
2021/12/14 08:02:24;;;;;;;19.70;8.10;;;9.40;99.90;;;;;;5094419;28;20032;-75
2021/12/14 08:05:00;;;;;;;18.88;8.88;;;9.40;99.90;;;;;;5076497;28;20032;-75
2021/12/14 08:07:39;;;;;;;19.33;9.48;;;9.30;99.90;;;;;;5094122;28;20059;-75
2021/12/14 08:10:15;;;;;;;16.67;8.45;;;9.40;99.90;;;;;;5076516;28;20028;-75
2021/12/14 08:12:50;;;;;;;18.95;8.02;;;9.40;99.90;;;;;;5094708;28;20016;-75
2021/12/14 08:15:23;;;;;;;18.05;8.15;;;9.40;99.90;;;;;;5076086;28;20028;-75
2021/12/14 08:18:04;;;;;;;19.23;8.70;;;9.30;99.90;;;;;;5094593;28;20020;-75
2021/12/14 08:20:32;;;;;;;18.00;8.05;;;9.30;99.90;;;;;;5094118;28;20082;-75
2021/12/14 08:23:12;;;;;;;18.90;8.43;;;9.40;99.90;;;;;;5094684;28;20162;-75
2021/12/14 08:25:40;;;;;;;18.63;8.38;;;9.40;99.90;;;;;;5094397;28;20032;-74
2021/12/14 08:28:07;;;;;;;18.10;8.75;;;9.40;99.90;;;;;;5076158;28;20031;-74
2021/12/14 08:30:36;;;;;;;17.65;8.48;;;9.40;99.90;;;;;;5074790;28;20024;-75
2021/12/14 08:33:03;;;;;;;20.52;9.80;;;9.40;99.90;;;;;;5094134;28;20091;-75
2021/12/14 08:35:30;;;;;;;19.48;9.20;;;9.40;99.90;;;;;;5093474;28;20069;-74
2021/12/14 08:37:59;;;;;;;16.63;8.02;;;9.40;99.90;;;;;;5094188;28;20016;-75
2021/12/14 08:40:29;;;;;;;18.55;8.90;;;9.40;99.90;;;;;;5093632;28;20038;-75
2021/12/14 08:43:21;;;;;;;23.90;10.32;;;9.50;99.90;;;;;;5094079;28;20024;-75
2021/12/14 08:46:09;;;;;;;20.25;9.73;;;9.50;99.90;;;;;;5093971;28;20062;-75
2021/12/14 08:48:49;;;;;;;18.35;9.40;;;9.50;99.90;;;;;;5093085;28;20089;-75
2021/12/14 08:51:24;;;;;;;20.33;9.35;;;9.50;99.90;;;;;;5093360;28;20060;-75
2021/12/14 08:54:01;;;;;;;24.05;9.77;;;9.60;99.90;;;;;;5093807;28;20035;-75
2021/12/14 08:56:29;;;;;;;17.45;8.38;;;9.50;99.90;;;;;;5075162;28;20055;-75
2021/12/14 08:58:55;;;;;;;20.38;10.13;;;9.50;99.90;;;;;;5093717;28;20055;-75
2021/12/14 09:01:26;;;;;;;20.08;10.02;;;9.50;99.80;;;;;;5093195;28;20024;-75
2021/12/14 09:04:01;;;;;;;18.13;9.77;;;9.60;99.90;;;;;;5075576;28;20107;-75
2021/12/14 09:06:31;;;;;;;20.52;9.10;;;9.60;99.80;;;;;;5092718;28;20456;-74
2021/12/14 09:09:03;;;;;;;21.70;10.68;;;9.60;99.80;;;;;;5093513;28;20052;-74
2021/12/14 09:11:33;;;;;;;24.35;11.02;;;9.60;99.80;;;;;;5093075;28;20027;-75
2021/12/14 09:13:59;;;;;;;20.42;9.85;;;9.60;99.80;;;;;;5075375;28;20020;-74
2021/12/14 09:16:28;;;;;;;20.35;10.10;;;9.70;99.70;;;;;;5092862;28;20028;-75
2021/12/14 09:19:05;;;;;;;20.42;9.25;;;9.70;99.70;;;;;;5074916;28;20103;-75
2021/12/14 09:21:41;;;;;;;25.45;10.98;;;9.70;99.70;;;;;;5074704;28;20043;-75
2021/12/14 09:24:11;;;;;;;18.95;9.02;;;9.80;99.70;;;;;;5093348;28;20043;-75
2021/12/14 09:26:40;;;;;;;17.90;8.80;;;9.80;99.60;;;;;;5092681;28;20032;-75
2021/12/14 09:29:12;;;;;;;20.85;9.98;;;9.80;99.60;;;;;;5075006;28;20437;-74
2021/12/14 09:31:39;;;;;;;;;;;9.80;99.60;;;;;;5093063;28;20077;-75
2021/12/14 09:34:07;;;;;;;18.73;8.60;;;9.80;99.60;;;;;;5093175;28;19904;-75
2021/12/14 09:36:33;;;;;;;23.77;9.32;;;9.80;99.60;;;;;;5092569;28;20032;-75
2021/12/14 09:39:13;;;;;;;23.58;10.23;;;9.80;99.60;;;;;;5092953;28;20024;-75
2021/12/14 09:41:43;;;;;;;23.48;10.82;;;9.80;99.60;;;;;;5074138;28;20372;-75
2021/12/14 09:44:16;;;;;;;24.65;10.85;;;9.80;99.60;;;;;;5092438;28;20017;-75
2021/12/14 09:46:42;;;;;;;22.60;10.63;;;9.80;99.60;;;;;;5093063;28;20115;-75
2021/12/14 09:49:10;;;;;;;23.90;10.70;;;9.80;99.60;;;;;;5074490;28;20035;-75
2021/12/14 09:51:44;;;;;;;24.52;11.18;;;9.80;99.60;;;;;;5074015;28;20381;-75
2021/12/14 09:54:14;;;;;;;25.65;11.02;;;9.80;99.60;;;;;;5092692;28;20031;-75
2021/12/14 09:56:45;;;;;;;25.45;12.02;;;9.80;99.60;;;;;;5092219;28;20042;-74
2021/12/14 09:59:12;;;;;;;26.63;11.80;;;9.90;99.80;;;;;;5074470;28;20044;-75
2021/12/14 10:01:47;;;;;;;27.50;11.65;;;9.80;99.60;;;;;;5074028;28;20024;-75
2021/12/14 10:04:21;;;;;;;23.60;10.68;;;9.90;99.60;;;;;;5074121;28;20027;-75
2021/12/14 10:06:49;;;;;;;24.02;12.20;;;9.90;99.50;;;;;;5092528;28;20044;-75
2021/12/14 10:09:23;;;;;;;26.90;12.50;;;9.90;99.50;;;;;;5092114;28;20130;-74
2021/12/14 10:12:18;;;;;;;28.92;13.20;;;9.90;99.60;;;;;;5092633;28;20494;-75
2021/12/14 10:14:45;;;;;;;28.90;12.70;;;9.90;99.60;;;;;;5092835;28;20028;-75
2021/12/14 10:17:14;;;;;;;26.63;11.52;;;9.90;99.50;;;;;;5092470;28;20012;-74
2021/12/14 10:19:41;;;;;;;21.88;11.32;;;9.90;99.50;;;;;;5073854;28;20078;-74
2021/12/14 10:22:15;;;;;;;24.15;11.00;;;9.90;99.50;;;;;;5092454;28;20024;-75
2021/12/14 10:24:41;;;;;;;27.02;12.35;;;9.90;99.50;;;;;;5073820;28;20020;-74
2021/12/14 10:27:14;;;;;;;26.77;12.27;;;9.90;99.50;;;;;;5074224;28;20107;-75
2021/12/14 10:29:42;;;;;;;26.20;12.00;;;9.90;99.50;;;;;;5092269;28;20139;-74
2021/12/14 10:32:12;;;;;;;27.33;12.25;;;10.00;99.50;;;;;;5073987;28;20090;-75
2021/12/14 10:34:42;;;;;;;32.60;13.70;;;10.00;99.50;;;;;;5091760;28;20461;-75
2021/12/14 10:43:15;;;;;;;25.88;11.90;;;10.10;99.30;;;;;;5092198;28;20062;-75
2021/12/14 10:45:45;;;;;;;28.45;12.75;;;10.10;99.20;;;;;;5091587;28;20047;-75
2021/12/14 10:48:12;;;;;;;36.70;14.90;;;10.10;99.20;;;;;;5074244;28;20380;-74
2021/12/14 10:50:39;;;;;;;35.10;15.10;;;10.10;99.20;;;;;;5091611;28;20512;-74
2021/12/14 10:53:08;;;;;;;28.02;13.15;;;10.10;99.20;;;;;;5092076;28;20035;-75
2021/12/14 10:55:46;;;;;;;28.70;12.20;;;10.10;99.30;;;;;;5095509;28;20027;-74
2021/12/14 10:58:13;;;;;;;34.67;14.07;;;10.10;99.30;;;;;;5077932;28;20489;-75
2021/12/14 11:00:58;;;;;;;32.03;12.23;;;10.10;99.30;;;;;;5077312;28;20544;-75
2021/12/14 11:03:28;;;;;;;31.27;13.70;;;10.20;99.30;;;;;;5077561;28;20024;-75
2021/12/14 11:05:58;;;;;;;27.17;12.02;;;10.20;99.30;;;;;;5096273;28;20032;-75
2021/12/14 11:08:38;;;;;;;33.30;14.98;;;10.20;99.30;;;;;;5078013;28;20048;-75
2021/12/14 11:11:11;;;;;;;29.53;13.40;;;10.30;99.20;;;;;;5077572;28;20051;-75
2021/12/14 11:13:52;;;;;;;29.67;12.07;;;10.30;99.20;;;;;;5077155;28;20031;-75
2021/12/14 11:19:42;;;;;;;31.23;14.20;;;10.30;99.10;;;;;;5095527;28;20035;-75
2021/12/14 11:22:08;;;;;;;33.15;14.00;;;10.40;99.10;;;;;;5094503;28;20395;-75
2021/12/14 11:24:37;;;;;;;34.75;15.82;;;10.30;99.10;;;;;;5094859;28;20024;-74
2021/12/14 11:27:24;;;;;;;33.85;14.52;;;10.30;99.40;;;;;;5077081;28;20154;-75
2021/12/14 11:30:15;;;;;;;31.73;14.65;;;10.30;99.20;;;;;;5095702;28;20024;-74
2021/12/14 11:32:43;;;;;;;32.85;14.60;;;10.40;99.20;;;;;;5076724;28;20055;-75
2021/12/14 11:35:27;;;;;;;41.90;18.33;;;10.30;99.10;;;;;;5095355;28;20452;-75
2021/12/14 11:37:55;;;;;;;32.75;14.40;;;10.40;99.20;;;;;;5077085;28;20424;-74
2021/12/14 11:40:27;;;;;;;32.22;14.73;;;10.40;99.20;;;;;;5095356;28;20016;-75
2021/12/14 11:43:07;;;;;;;32.55;15.15;;;10.40;99.20;;;;;;5095225;28;20016;-75
2021/12/14 11:45:36;;;;;;;30.98;13.48;;;10.40;99.20;;;;;;5094734;28;20115;-75
2021/12/14 11:48:03;;;;;;;33.15;15.05;;;10.30;99.10;;;;;;5095063;28;20024;-75
2021/12/14 11:50:40;;;;;;;35.28;16.25;;;10.30;99.20;;;;;;5094469;28;20020;-75
2021/12/14 11:53:06;;;;;;;34.05;16.35;;;10.40;99.30;;;;;;5076826;28;20028;-75
2021/12/14 11:55:53;;;;;;;28.60;12.68;;;10.40;99.20;;;;;;5094572;28;20032;-75
2021/12/14 11:58:33;;;;;;;30.13;12.98;;;10.50;99.30;;;;;;5094975;28;20024;-75
2021/12/14 12:01:50;;;;;;;34.30;16.13;;;10.50;99.20;;;;;;5076755;28;20383;-75
2021/12/14 12:04:20;;;;;;;34.67;14.95;;;10.50;99.10;;;;;;4995912;28;20030;-75
2021/12/14 12:09:28;;;;;;;35.28;15.70;;;10.40;99.10;;;;;;5094909;28;20048;-75
2021/12/14 12:12:28;;;;;;;33.00;15.13;;;10.40;99.20;;;;;;5076472;28;20021;-75
2021/12/14 12:15:12;;;;;;;30.25;14.93;;;10.50;99.30;;;;;;5076452;28;20031;-75
2021/12/14 12:17:42;;;;;;;35.10;15.55;;;10.50;99.20;;;;;;5094000;28;20012;-75
2021/12/14 12:20:14;;;;;;;38.88;15.48;;;10.50;99.20;;;;;;5094534;28;20029;-75
2021/12/14 12:22:49;;;;;;;35.20;15.65;;;10.50;99.20;;;;;;5075336;28;20024;-75
2021/12/14 12:25:22;;;;;;;37.75;16.75;;;10.40;99.30;;;;;;5076163;28;20032;-75
2021/12/14 12:27:53;;;;;;;36.03;16.45;;;10.50;99.30;;;;;;5094221;28;20035;-75
2021/12/14 12:30:33;;;;;;;38.35;16.83;;;10.40;99.30;;;;;;5076234;28;20035;-75
2021/12/14 12:33:18;;;;;;;35.97;15.20;;;10.40;99.30;;;;;;5076031;28;20047;-75
2021/12/14 12:35:49;;;;;;;33.63;14.80;;;10.40;99.40;;;;;;5093826;28;20028;-75
2021/12/14 12:38:26;;;;;;;37.47;16.00;;;10.40;99.40;;;;;;5076243;28;20028;-75
2021/12/14 12:41:13;;;;;;;40.17;17.33;;;10.40;99.40;;;;;;5075664;28;20031;-75
2021/12/14 12:43:49;;;;;;;37.80;17.52;;;10.40;99.40;;;;;;5093685;28;20464;-75
2021/12/14 12:46:26;;;;;;;37.83;17.15;;;10.40;99.40;;;;;;5075625;28;20033;-75
2021/12/14 12:49:18;;;;;;;37.53;15.43;;;10.40;99.50;;;;;;5093468;28;20024;-75
2021/12/14 12:52:04;;;;;;;37.60;15.77;;;10.40;99.50;;;;;;5093196;28;20020;-75
2021/12/14 12:54:56;;;;;;;37.28;15.55;;;10.40;99.50;;;;;;5093455;28;20111;-76
2021/12/14 12:57:34;;;;;;;33.50;15.15;;;10.40;99.50;;;;;;5093564;28;20416;-77
2021/12/14 13:00:23;;;;;;;33.40;14.75;;;10.50;99.50;;;;;;5075594;28;20032;-76
2021/12/14 13:03:01;;;;;;;37.63;14.93;;;10.50;99.50;;;;;;5093289;28;20226;-74
2021/12/14 13:05:37;;;;;;;33.05;14.98;;;10.50;99.50;;;;;;5075173;28;20059;-75
2021/12/14 13:08:30;;;;;;;36.65;17.13;;;10.50;99.50;;;;;;5074974;28;20505;-75
2021/12/14 13:11:05;;;;;;;36.13;17.08;;;10.50;99.50;;;;;;5093802;28;20031;-75
2021/12/14 13:13:38;;;;;;;42.92;19.73;;;10.40;99.60;;;;;;5093157;28;20032;-75
2021/12/14 13:16:20;;;;;;;35.90;15.75;;;10.50;99.60;;;;;;5093445;28;20028;-75
2021/12/14 13:18:59;;;;;;;40.58;17.45;;;10.40;99.70;;;;;;5092969;28;20024;-75
2021/12/14 13:21:30;;;;;;;34.10;15.32;;;10.40;99.70;;;;;;5075207;28;20020;-75
2021/12/14 13:24:05;;;;;;;36.20;16.02;;;10.40;99.80;;;;;;5093645;28;20023;-75
2021/12/14 13:26:48;;;;;;;34.00;14.40;;;10.40;99.90;;;;;;5074440;28;20077;-75
2021/12/14 13:29:14;;;;;;;38.42;16.23;;;10.30;99.90;;;;;;5092929;28;20384;-75
2021/12/14 13:32:03;;;;;;;40.35;17.15;;;10.40;99.90;;;;;;5092359;28;20020;-75
2021/12/14 13:34:34;;;;;;;35.67;15.25;;;10.30;99.90;;;;;;5093195;28;20016;-75
2021/12/14 13:37:00;;;;;;;36.15;15.32;;;10.30;99.90;;;;;;5075145;28;20431;-75
2021/12/14 13:39:28;;;;;;;33.22;14.75;;;10.30;99.90;;;;;;5092991;28;20052;-75
2021/12/14 13:42:12;;;;;;;30.23;13.30;;;10.30;99.90;;;;;;5074160;28;20012;-75
2021/12/14 13:44:50;;;;;;;32.45;14.82;;;10.30;99.90;;;;;;5074195;28;20024;-76
2021/12/14 13:47:19;;;;;;;40.28;16.45;;;10.20;99.90;;;;;;5092854;28;20119;-75
2021/12/14 13:49:46;;;;;;;44.28;18.27;;;10.30;99.90;;;;;;5092559;28;20024;-75
2021/12/14 13:52:15;;;;;;;36.40;14.52;;;10.20;99.90;;;;;;5092762;28;20020;-75
2021/12/14 13:55:18;;;;;;;37.17;15.85;;;10.20;99.90;;;;;;5092225;28;20020;-76
2021/12/14 13:58:01;;;;;;;38.15;15.57;;;10.20;99.90;;;;;;5074021;28;20020;-76
2021/12/14 14:00:52;;;;;;;44.10;18.02;;;10.10;99.90;;;;;;5074768;28;20020;-76
2021/12/14 14:03:21;;;;;;;;;;;10.10;99.90;;;;;;5093442;28;20103;-76